createdAt,value
2018-12-29T00:02:19.662Z,1.10
2018-12-29T00:04:51.169Z,1.10
2018-12-29T00:07:25.923Z,1.10
2018-12-29T00:09:54.393Z,1.10
2018-12-29T00:12:24.513Z,1.10
2018-12-29T00:15:01.609Z,1.10
2018-12-29T00:17:31.668Z,1.10
2018-12-29T00:20:00.225Z,1.10
2018-12-29T00:22:31.830Z,1.00
2018-12-29T00:25:01.898Z,1.00
2018-12-29T00:27:30.613Z,1.00
2018-12-29T00:30:03.595Z,1.00
2018-12-29T00:32:45.578Z,1.00
2018-12-29T00:35:15.631Z,1.00
2018-12-29T00:37:48.683Z,1.00
2018-12-29T00:40:22.798Z,1.00
2018-12-29T00:42:51.213Z,1.00
2018-12-29T00:45:19.659Z,0.90
2018-12-29T00:47:48.111Z,1.00
2018-12-29T00:50:22.501Z,1.00
2018-12-29T00:52:51.243Z,0.90
2018-12-29T00:55:25.593Z,0.90
2018-12-29T00:57:56.694Z,0.90
2018-12-29T01:00:26.663Z,0.90
2018-12-29T01:03:00.889Z,0.80
2018-12-29T01:05:35.182Z,0.90
2018-12-29T01:08:06.375Z,0.80
2018-12-29T01:10:40.422Z,0.80
2018-12-29T01:13:11.738Z,0.80
2018-12-29T01:15:46.136Z,0.80
2018-12-29T01:18:20.720Z,0.80
2018-12-29T01:20:49.174Z,0.80
2018-12-29T01:23:17.593Z,0.80
2018-12-29T01:25:46.306Z,0.70
2018-12-29T01:28:17.915Z,0.70
2018-12-29T01:30:52.370Z,0.60
2018-12-29T01:33:23.961Z,0.60
2018-12-29T01:35:55.694Z,0.60
2018-12-29T01:38:30.011Z,0.50
2018-12-29T01:41:03.034Z,0.50
2018-12-29T01:43:31.483Z,0.50
2018-12-29T01:46:02.925Z,0.50
2018-12-29T01:48:31.360Z,0.40
2018-12-29T01:51:02.465Z,0.40
2018-12-29T01:53:33.822Z,0.40
2018-12-29T01:56:02.242Z,0.40
2018-12-29T01:58:31.051Z,0.40
2018-12-29T02:01:14.561Z,0.40
2018-12-29T02:03:48.650Z,0.40
2018-12-29T02:06:22.769Z,0.40
2018-12-29T02:08:52.863Z,0.40
2018-12-29T02:11:22.939Z,0.40
2018-12-29T02:13:55.714Z,0.30
2018-12-29T02:16:24.129Z,0.40
2018-12-29T02:18:58.857Z,0.40
2018-12-29T02:21:36.285Z,0.40
2018-12-29T02:24:04.996Z,0.40
2018-12-29T02:26:37.971Z,0.30
2018-12-29T02:29:08.049Z,0.30
2018-12-29T02:31:37.303Z,0.30
2018-12-29T02:34:08.647Z,0.30
2018-12-29T02:36:39.902Z,0.30
2018-12-29T02:39:08.535Z,0.20
2018-12-29T02:41:36.988Z,0.30
2018-12-29T02:44:05.409Z,0.30
2018-12-29T02:46:36.561Z,0.30
2018-12-29T02:49:05.014Z,0.30
2018-12-29T02:51:33.451Z,0.30
2018-12-29T02:54:08.269Z,0.30
2018-12-29T02:56:42.665Z,0.20
2018-12-29T02:59:13.809Z,0.20
2018-12-29T03:01:46.294Z,0.20
2018-12-29T03:04:25.197Z,0.20
2018-12-29T03:06:53.610Z,0.20
2018-12-29T03:09:22.553Z,0.30
2018-12-29T03:11:52.886Z,0.20
2018-12-29T03:14:21.310Z,0.30
2018-12-29T03:16:49.774Z,0.30
2018-12-29T03:19:18.492Z,0.40
2018-12-29T03:21:52.357Z,0.30
2018-12-29T03:24:20.772Z,0.40
2018-12-29T03:26:49.202Z,0.40
2018-12-29T03:29:20.301Z,0.50
2018-12-29T03:31:49.764Z,0.50
2018-12-29T03:34:18.515Z,0.40
2018-12-29T03:36:56.110Z,0.50
2018-12-29T03:39:29.032Z,0.50
2018-12-29T03:42:03.670Z,0.50
2018-12-29T03:44:34.837Z,0.50
2018-12-29T03:47:03.541Z,0.50
2018-12-29T03:49:37.912Z,0.50
2018-12-29T03:52:06.351Z,0.50
2018-12-29T03:54:45.182Z,0.60
2018-12-29T03:57:13.950Z,0.60
2018-12-29T03:59:47.301Z,0.50
2018-12-29T04:02:15.738Z,0.50
2018-12-29T04:04:52.777Z,0.60
2018-12-29T04:07:24.104Z,0.50
2018-12-29T04:09:58.206Z,0.60
2018-12-29T04:12:29.804Z,0.50
2018-12-29T04:15:00.667Z,0.60
2018-12-29T04:17:30.725Z,0.50
2018-12-29T04:19:59.154Z,0.50
2018-12-29T04:22:29.235Z,0.50
2018-12-29T04:25:04.884Z,0.50
2018-12-29T04:27:36.367Z,0.50
2018-12-29T04:30:10.251Z,0.50
2018-12-29T04:32:38.930Z,0.50
2018-12-29T04:35:17.617Z,0.40
2018-12-29T04:37:47.670Z,0.40
2018-12-29T04:40:21.238Z,0.30
2018-12-29T04:42:52.334Z,0.30
2018-12-29T04:45:25.323Z,0.30
2018-12-29T04:47:56.758Z,0.40
2018-12-29T04:50:28.769Z,0.30
2018-12-29T04:53:00.129Z,0.30
2018-12-29T04:55:30.209Z,0.30
2018-12-29T04:58:00.263Z,0.30
2018-12-29T05:00:36.734Z,0.20
2018-12-29T05:03:07.991Z,0.20
2018-12-29T05:05:39.122Z,0.20
2018-12-29T05:08:12.214Z,0.20
2018-12-29T05:10:44.961Z,0.30
2018-12-29T05:13:16.073Z,0.20
2018-12-29T05:15:46.022Z,0.20
2018-12-29T05:18:14.596Z,0.20
2018-12-29T05:20:44.650Z,0.30
2018-12-29T05:23:14.737Z,0.30
2018-12-29T05:25:45.802Z,0.30
2018-12-29T05:28:14.222Z,0.30
2018-12-29T05:30:42.642Z,0.30
2018-12-29T05:33:15.799Z,0.30
2018-12-29T05:35:47.399Z,0.20
2018-12-29T05:38:19.286Z,0.20
2018-12-29T05:40:47.723Z,0.20
2018-12-29T05:43:19.094Z,0.20
2018-12-29T05:45:49.162Z,0.20
2018-12-29T05:48:20.618Z,0.20
2018-12-29T05:50:52.487Z,0.30
2018-12-29T05:53:23.830Z,0.30
2018-12-29T05:55:52.270Z,0.30
2018-12-29T05:58:21.942Z,0.20
2018-12-29T06:00:56.009Z,0.20
2018-12-29T06:03:33.742Z,0.20
2018-12-29T06:06:04.978Z,0.20
2018-12-29T06:08:35.414Z,0.20
2018-12-29T06:11:03.833Z,0.30
2018-12-29T06:13:33.910Z,0.20
2018-12-29T06:16:05.350Z,0.30
2018-12-29T06:18:36.449Z,0.30
2018-12-29T06:21:06.522Z,0.30
2018-12-29T06:23:39.521Z,0.30
2018-12-29T06:26:10.907Z,0.30
2018-12-29T06:28:40.767Z,0.30
2018-12-29T06:31:10.792Z,0.30
2018-12-29T06:33:46.361Z,0.30
2018-12-29T06:36:14.809Z,0.30
2018-12-29T06:38:43.225Z,0.20
2018-12-29T06:41:13.106Z,0.20
2018-12-29T06:43:41.578Z,0.20
2018-12-29T06:46:09.994Z,0.10
2018-12-29T06:48:40.085Z,0.10
2018-12-29T06:51:08.490Z,0.10
2018-12-29T06:53:38.573Z,0.10
2018-12-29T06:56:10.002Z,0.10
2018-12-29T06:58:41.131Z,0.10
2018-12-29T07:01:14.327Z,0.00
2018-12-29T07:03:42.770Z,0.00
2018-12-29T07:06:16.921Z,0.00
2018-12-29T07:08:51.574Z,0.00
2018-12-29T07:11:27.454Z,0.00
2018-12-29T07:13:58.694Z,0.00
2018-12-29T07:16:27.425Z,0.00
2018-12-29T07:18:55.838Z,0.00
2018-12-29T07:21:28.550Z,-0.10
2018-12-29T07:23:59.642Z,0.00
2018-12-29T07:26:32.466Z,-0.10
2018-12-29T07:29:04.114Z,-0.10
2018-12-29T07:31:35.405Z,-0.10
2018-12-29T07:34:15.674Z,0.00
2018-12-29T07:36:44.111Z,0.00
2018-12-29T07:39:14.176Z,0.00
2018-12-29T07:41:42.609Z,0.00
2018-12-29T07:44:16.609Z,0.10
2018-12-29T07:46:49.724Z,0.10
2018-12-29T07:49:18.275Z,0.10
2018-12-29T07:51:53.188Z,0.10
2018-12-29T07:54:21.599Z,0.10
2018-12-29T07:56:55.161Z,0.20
2018-12-29T07:59:27.492Z,0.20
2018-12-29T08:01:55.872Z,0.20
2018-12-29T08:04:34.106Z,0.20
2018-12-29T08:07:05.665Z,0.30
2018-12-29T08:09:39.781Z,0.40
2018-12-29T08:12:10.145Z,0.40
2018-12-29T08:14:45.650Z,0.50
2018-12-29T08:17:14.066Z,0.60
2018-12-29T08:19:42.498Z,0.70
2018-12-29T08:22:14.033Z,0.80
2018-12-29T08:24:50.617Z,0.80
2018-12-29T08:27:21.552Z,0.90
2018-12-29T08:29:51.599Z,1.00
2018-12-29T08:32:20.296Z,1.10
2018-12-29T08:34:48.710Z,1.10
2018-12-29T08:37:17.440Z,1.10
2018-12-29T08:39:48.792Z,1.20
2018-12-29T08:42:22.875Z,1.10
2018-12-29T08:44:52.954Z,1.10
2018-12-29T08:47:24.097Z,1.00
2018-12-29T08:49:55.463Z,1.00
2018-12-29T08:52:28.722Z,1.00
2018-12-29T08:54:57.146Z,1.00
2018-12-29T08:57:25.874Z,1.00
2018-12-29T09:00:06.589Z,1.00
2018-12-29T09:02:33.067Z,1.00
2018-12-29T09:05:04.589Z,1.10
2018-12-29T09:07:32.995Z,1.20
2018-12-29T09:10:03.066Z,1.30
2018-12-29T09:12:37.360Z,1.40
2018-12-29T09:15:11.717Z,1.30
2018-12-29T09:17:49.037Z,1.30
2018-12-29T09:20:20.145Z,1.30
2018-12-29T09:22:53.370Z,1.30
2018-12-29T09:25:23.446Z,1.30
2018-12-29T09:28:04.991Z,1.30
2018-12-29T09:30:38.366Z,1.40
2018-12-29T09:33:06.778Z,1.40
2018-12-29T09:35:37.876Z,1.30
2018-12-29T09:38:06.367Z,1.30
2018-12-29T09:40:40.370Z,1.30
2018-12-29T09:43:13.510Z,1.40
2018-12-29T09:45:43.580Z,1.60
2018-12-29T09:48:15.927Z,1.70
2018-12-29T09:50:47.357Z,1.80
2018-12-29T09:53:17.410Z,1.80
2018-12-29T09:55:48.822Z,1.90
2018-12-29T09:58:18.544Z,2.10
2018-12-29T10:00:46.939Z,2.40
2018-12-29T10:03:18.222Z,2.70
2018-12-29T10:05:49.670Z,3.10
2018-12-29T10:08:18.087Z,3.20
2018-12-29T10:10:51.390Z,3.30
2018-12-29T10:13:22.517Z,3.30
2018-12-29T10:15:50.925Z,3.30
2018-12-29T10:18:20.875Z,3.30
2018-12-29T10:20:55.282Z,3.30
2018-12-29T10:23:23.730Z,3.30
2018-12-29T10:25:55.293Z,3.20
2018-12-29T10:28:34.067Z,3.10
2018-12-29T10:31:04.006Z,3.00
2018-12-29T10:33:36.613Z,2.90
2018-12-29T10:36:07.011Z,2.80
2018-12-29T10:38:46.283Z,2.80
2018-12-29T10:41:10.470Z,2.80
2018-12-29T10:43:44.414Z,2.80
2018-12-29T10:46:14.504Z,2.70
2018-12-29T10:48:42.914Z,2.70
2018-12-29T10:51:14.426Z,2.80
2018-12-29T10:53:53.474Z,2.90
2018-12-29T10:56:22.186Z,2.90
2018-12-29T10:58:52.166Z,3.00
2018-12-29T11:01:20.566Z,3.10
2018-12-29T11:04:00.716Z,3.10
2018-12-29T11:06:32.250Z,3.20
2018-12-29T11:09:03.734Z,3.30
2018-12-29T11:11:36.554Z,3.30
2018-12-29T11:14:04.966Z,3.30
2018-12-29T11:16:33.776Z,3.30
2018-12-29T11:19:03.866Z,3.20
2018-12-29T11:21:32.572Z,3.20
2018-12-29T11:24:09.770Z,3.10
2018-12-29T11:26:44.190Z,3.00
2018-12-29T11:29:11.615Z,2.90
2018-12-29T11:31:46.041Z,2.90
2018-12-29T11:34:14.465Z,2.80
2018-12-29T11:36:42.878Z,2.70
2018-12-29T11:39:15.326Z,2.70
2018-12-29T11:41:45.722Z,2.60
2018-12-29T11:44:17.266Z,2.60
2018-12-29T11:46:47.378Z,2.60
2018-12-29T11:49:19.296Z,2.70
2018-12-29T11:51:47.726Z,2.70
2018-12-29T11:54:19.181Z,2.80
2018-12-29T11:56:49.258Z,2.80
2018-12-29T11:59:20.618Z,2.90
2018-12-29T12:01:56.222Z,2.90
2018-12-29T12:04:31.893Z,3.10
2018-12-29T12:07:03.659Z,3.10
2018-12-29T12:09:38.234Z,3.10
2018-12-29T12:12:08.326Z,3.10
2018-12-29T12:14:42.220Z,3.10
2018-12-29T12:17:15.322Z,3.00
2018-12-29T12:19:45.125Z,3.00
2018-12-29T12:22:13.594Z,3.00
2018-12-29T12:24:43.710Z,2.90
2018-12-29T12:27:24.415Z,2.80
2018-12-29T12:29:55.310Z,2.80
2018-12-29T12:32:29.832Z,2.80
2018-12-29T12:35:04.747Z,2.70
2018-12-29T12:37:39.311Z,2.70
2018-12-29T12:40:08.914Z,2.70
2018-12-29T12:42:42.058Z,2.60
2018-12-29T12:45:15.298Z,2.70
2018-12-29T12:47:49.414Z,2.70
2018-12-29T12:50:19.587Z,2.70
2018-12-29T12:52:50.939Z,2.70
2018-12-29T12:55:19.438Z,2.70
2018-12-29T12:57:49.841Z,2.60
2018-12-29T13:00:24.625Z,2.60
2018-12-29T13:02:53.619Z,2.60
2018-12-29T13:05:27.622Z,2.50
2018-12-29T13:07:58.789Z,2.50
2018-12-29T13:10:27.215Z,2.40
2018-12-29T13:12:58.652Z,2.30
2018-12-29T13:15:29.855Z,2.20
2018-12-29T13:18:01.431Z,2.10
2018-12-29T13:20:32.761Z,2.10
2018-12-29T13:23:06.816Z,2.00
2018-12-29T13:25:40.105Z,2.00
2018-12-29T13:28:08.868Z,2.00
2018-12-29T13:30:42.806Z,2.00
2018-12-29T13:33:11.229Z,2.00
2018-12-29T13:35:42.691Z,2.00
2018-12-29T13:38:17.219Z,1.90
2018-12-29T13:40:45.954Z,1.80
2018-12-29T13:43:19.495Z,1.80
2018-12-29T13:45:47.915Z,1.80
2018-12-29T13:48:20.709Z,1.80
2018-12-29T13:50:53.529Z,1.80
2018-12-29T13:53:25.222Z,1.90
2018-12-29T13:55:56.294Z,1.90
2018-12-29T13:58:24.828Z,1.90
2018-12-29T14:00:54.781Z,1.80
2018-12-29T14:03:29.558Z,1.80
2018-12-29T14:05:58.005Z,1.70
2018-12-29T14:08:55.258Z,1.60
2018-12-29T14:11:05.318Z,1.50
2018-12-29T14:13:36.469Z,1.40
2018-12-29T14:16:04.922Z,1.30
2018-12-29T14:18:34.633Z,1.30
2018-12-29T14:21:06.045Z,1.30
2018-12-29T14:23:34.506Z,1.30
2018-12-29T14:26:04.645Z,1.20
2018-12-29T14:28:38.219Z,1.20
2018-12-29T14:31:12.526Z,1.20
2018-12-29T14:33:46.761Z,1.20
2018-12-29T14:36:17.835Z,1.20
2018-12-29T14:38:48.037Z,1.20
2018-12-29T14:41:17.076Z,1.20
2018-12-29T14:43:45.490Z,1.10
2018-12-29T14:46:17.702Z,1.10
2018-12-29T14:48:54.398Z,1.10
2018-12-29T14:51:22.902Z,1.00
2018-12-29T14:53:51.321Z,1.00
2018-12-29T14:56:20.035Z,1.00
2018-12-29T14:58:48.489Z,1.00
2018-12-29T15:01:16.918Z,1.00
2018-12-29T15:03:45.337Z,1.00
2018-12-29T15:06:13.797Z,1.00
2018-12-29T15:08:45.310Z,1.00
2018-12-29T15:11:13.982Z,1.00
2018-12-29T15:13:45.742Z,1.00
2018-12-29T15:16:17.266Z,1.00
2018-12-29T15:18:48.736Z,1.00
2018-12-29T15:21:21.153Z,0.90
2018-12-29T15:23:49.585Z,0.90
2018-12-29T15:26:19.746Z,0.90
2018-12-29T15:28:51.942Z,1.00
2018-12-29T15:31:23.604Z,1.00
2018-12-29T15:33:52.414Z,1.00
2018-12-29T15:36:21.210Z,1.00
2018-12-29T15:38:51.966Z,1.00
2018-12-29T15:41:21.961Z,0.90
2018-12-29T15:43:54.092Z,0.90
2018-12-29T15:46:22.926Z,0.90
2018-12-29T15:48:53.027Z,0.90
2018-12-29T15:51:26.982Z,0.90
2018-12-29T15:53:57.118Z,0.90
2018-12-29T15:56:29.207Z,0.90
2018-12-29T15:59:03.565Z,0.90
2018-12-29T16:01:34.974Z,0.90
2018-12-29T16:04:06.150Z,0.90
2018-12-29T16:06:37.659Z,0.90
2018-12-29T16:09:09.430Z,0.90
2018-12-29T16:11:48.849Z,0.90
2018-12-29T16:14:21.426Z,0.90
2018-12-29T16:16:52.697Z,0.90
2018-12-29T16:19:21.194Z,0.90
2018-12-29T16:21:58.842Z,0.90
2018-12-29T16:24:38.541Z,0.90
2018-12-29T16:27:07.342Z,0.90
2018-12-29T16:29:41.232Z,0.90
2018-12-29T16:32:16.914Z,0.90
2018-12-29T16:34:47.039Z,0.90
2018-12-29T16:37:17.167Z,0.90
2018-12-29T16:39:50.070Z,0.90
2018-12-29T16:42:23.129Z,0.90
2018-12-29T16:44:51.626Z,0.90
2018-12-29T16:47:20.154Z,0.90
2018-12-29T16:49:48.838Z,0.90
2018-12-29T16:52:22.152Z,0.90
2018-12-29T16:54:53.432Z,0.90
2018-12-29T16:57:23.490Z,0.90
2018-12-29T16:59:57.879Z,0.90
2018-12-29T17:02:26.550Z,0.90
2018-12-29T17:04:57.922Z,1.00
2018-12-29T17:07:27.217Z,0.90
2018-12-29T17:09:55.646Z,0.90
2018-12-29T17:12:28.846Z,0.90
2018-12-29T17:15:05.110Z,0.90
2018-12-29T17:17:36.285Z,1.00
2018-12-29T17:20:07.774Z,0.90
2018-12-29T17:22:36.498Z,1.00
2018-12-29T17:25:05.186Z,1.00
2018-12-29T17:27:33.947Z,1.00
2018-12-29T17:30:06.114Z,1.00
2018-12-29T17:32:34.910Z,0.90
2018-12-29T17:35:06.268Z,1.00
2018-12-29T17:37:44.090Z,1.00
2018-12-29T17:40:15.402Z,1.00
2018-12-29T17:42:46.589Z,1.00
2018-12-29T17:45:15.214Z,1.00
2018-12-29T17:47:46.239Z,1.00
2018-12-29T17:50:22.059Z,1.00
2018-12-29T17:52:49.059Z,1.00
2018-12-29T17:55:17.480Z,1.00
2018-12-29T17:57:54.393Z,1.00
2018-12-29T18:00:26.210Z,0.90
2018-12-29T18:02:55.046Z,1.00
2018-12-29T18:05:23.590Z,1.00
2018-12-29T18:07:53.669Z,0.90
2018-12-29T18:10:25.570Z,1.00
2018-12-29T18:12:55.022Z,0.90
2018-12-29T18:15:23.605Z,0.90
2018-12-29T18:17:52.810Z,0.90
2018-12-29T18:20:21.230Z,0.90
2018-12-29T18:22:52.554Z,0.90
2018-12-29T18:25:21.194Z,0.90
2018-12-29T18:27:50.307Z,0.90
2018-12-29T18:30:19.070Z,0.90
2018-12-29T18:32:49.938Z,0.90
2018-12-29T18:35:21.271Z,0.90
2018-12-29T18:37:49.789Z,0.90
2018-12-29T18:40:21.991Z,0.90
2018-12-29T18:42:55.859Z,0.90
2018-12-29T18:45:29.167Z,0.90
2018-12-29T18:48:07.553Z,0.90
2018-12-29T18:50:40.669Z,1.00
2018-12-29T18:53:10.750Z,1.00
2018-12-29T18:55:39.202Z,1.00
2018-12-29T18:58:08.030Z,1.00
2018-12-29T19:00:39.630Z,1.00
2018-12-29T19:03:08.094Z,1.10
2018-12-29T19:05:38.439Z,1.10
2018-12-29T19:08:06.922Z,1.10
2018-12-29T19:10:41.598Z,1.10
2018-12-29T19:13:12.031Z,1.10
2018-12-29T19:15:40.750Z,1.10
2018-12-29T19:18:15.108Z,1.10
2018-12-29T19:20:45.577Z,1.10
2018-12-29T19:23:19.798Z,1.10
2018-12-29T19:25:50.162Z,1.10
2018-12-29T19:28:24.879Z,1.10
2018-12-29T19:30:58.166Z,1.10
2018-12-29T19:33:26.990Z,1.10
2018-12-29T19:36:00.165Z,1.10
2018-12-29T19:38:30.483Z,1.10
2018-12-29T19:41:05.831Z,1.10
2018-12-29T19:43:34.725Z,1.10
2018-12-29T19:46:05.190Z,1.10
2018-12-29T19:48:37.994Z,1.10
2018-12-29T19:51:06.720Z,1.10
2018-12-29T19:53:37.226Z,1.10
2018-12-29T19:56:11.997Z,1.10
2018-12-29T19:58:49.870Z,1.10
2018-12-29T20:01:18.357Z,1.10
2018-12-29T20:03:49.654Z,1.00
2018-12-29T20:06:21.410Z,1.00
2018-12-29T20:08:53.134Z,1.00
2018-12-29T20:11:24.443Z,1.00
2018-12-29T20:13:56.746Z,1.00
2018-12-29T20:16:25.856Z,1.00
2018-12-29T20:18:58.322Z,1.00
2018-12-29T20:21:28.414Z,1.00
2018-12-29T20:23:58.476Z,1.00
2018-12-29T20:26:28.631Z,1.00
2018-12-29T20:28:59.931Z,1.00
2018-12-29T20:31:30.337Z,1.00
2018-12-29T20:34:01.487Z,1.00
2018-12-29T20:36:36.099Z,1.10
2018-12-29T20:39:10.270Z,1.10
2018-12-29T20:41:44.389Z,1.10
2018-12-29T20:44:13.110Z,1.10
2018-12-29T20:46:41.528Z,1.10
2018-12-29T20:49:10.038Z,1.10
2018-12-29T20:51:41.006Z,1.10
2018-12-29T20:54:11.059Z,1.10
2018-12-29T20:56:41.026Z,1.10
2018-12-29T20:59:15.673Z,1.10
2018-12-29T21:01:47.658Z,1.10
2018-12-29T21:04:16.662Z,1.10
2018-12-29T21:06:45.103Z,1.10
2018-12-29T21:09:16.443Z,1.10
2018-12-29T21:11:46.038Z,1.00
2018-12-29T21:14:17.813Z,1.00
2018-12-29T21:16:49.709Z,1.00
2018-12-29T21:19:20.445Z,1.00
2018-12-29T21:21:51.282Z,1.00
2018-12-29T21:24:24.045Z,1.00
2018-12-29T21:26:57.125Z,1.00
2018-12-29T21:29:27.254Z,1.00
2018-12-29T21:31:59.104Z,1.00
2018-12-29T21:34:27.596Z,1.00
2018-12-29T21:36:56.089Z,1.00
2018-12-29T21:39:24.541Z,1.00
2018-12-29T21:41:53.022Z,1.00
2018-12-29T21:44:25.878Z,1.00
2018-12-29T21:47:04.773Z,1.00
2018-12-29T21:49:34.735Z,0.90
2018-12-29T21:52:06.136Z,0.90
2018-12-29T21:54:43.714Z,0.90
2018-12-29T21:57:22.214Z,0.90
2018-12-29T21:59:59.309Z,0.90
2018-12-29T22:02:29.474Z,0.90
2018-12-29T22:05:03.502Z,0.90
2018-12-29T22:07:35.006Z,0.90
2018-12-29T22:10:03.938Z,0.90
2018-12-29T22:12:32.365Z,0.90
2018-12-29T22:15:06.182Z,0.90
2018-12-29T22:17:42.503Z,0.90
2018-12-29T22:20:16.754Z,0.90
2018-12-29T22:22:45.451Z,0.90
2018-12-29T22:25:21.358Z,0.90
2018-12-29T22:27:52.750Z,0.90
2018-12-29T22:30:29.065Z,1.00
2018-12-29T22:32:57.450Z,1.00
2018-12-29T22:35:31.904Z,1.00
2018-12-29T22:38:05.969Z,1.00
2018-12-29T22:40:40.260Z,1.00
2018-12-29T22:43:11.921Z,1.00
2018-12-29T22:45:43.378Z,1.00
2018-12-29T22:48:16.163Z,1.00
2018-12-29T22:50:47.358Z,1.00
2018-12-29T22:53:23.902Z,1.00
2018-12-29T22:55:55.875Z,1.00
2018-12-29T22:58:27.009Z,1.00
2018-12-29T23:00:56.222Z,1.00
2018-12-29T23:03:26.638Z,1.00
2018-12-29T23:05:55.988Z,1.00
2018-12-29T23:08:24.502Z,1.00
2018-12-29T23:10:57.617Z,1.00
2018-12-29T23:13:32.034Z,1.10
2018-12-29T23:16:01.852Z,1.10
2018-12-29T23:18:32.878Z,1.10
2018-12-29T23:21:01.776Z,1.10
2018-12-29T23:23:35.072Z,1.10
2018-12-29T23:26:12.117Z,1.10
2018-12-29T23:28:46.514Z,1.10
2018-12-29T23:31:15.008Z,1.10
2018-12-29T23:33:44.076Z,1.10
2018-12-29T23:36:17.635Z,1.10
2018-12-29T23:38:48.898Z,1.10
2018-12-29T23:41:17.316Z,1.20
2018-12-29T23:43:50.694Z,1.20
2018-12-29T23:46:23.466Z,1.20
2018-12-29T23:48:52.301Z,1.20
2018-12-29T23:51:30.898Z,1.20
2018-12-29T23:54:04.835Z,1.20
2018-12-29T23:56:33.728Z,1.20
2018-12-29T23:59:07.982Z,1.20
